sensor_id;sensor_type;location;lat;lon;timestamp;P1;durP1;ratioP1;P2;durP2;ratioP2
8622;SDS011;4349;47.552;8.904;2022-12-16T00:01:03;27.73;;;19.63;;
8622;SDS011;4349;47.552;8.904;2022-12-16T00:03:31;25.00;;;17.87;;
8622;SDS011;4349;47.552;8.904;2022-12-16T00:05:59;29.07;;;19.93;;
8622;SDS011;4349;47.552;8.904;2022-12-16T00:08:30;27.40;;;18.60;;
8622;SDS011;4349;47.552;8.904;2022-12-16T00:10:58;28.43;;;18.37;;
8622;SDS011;4349;47.552;8.904;2022-12-16T00:13:26;27.27;;;18.13;;
8622;SDS011;4349;47.552;8.904;2022-12-16T00:15:55;27.17;;;17.80;;
8622;SDS011;4349;47.552;8.904;2022-12-16T00:18:23;27.40;;;18.13;;
8622;SDS011;4349;47.552;8.904;2022-12-16T00:20:51;25.27;;;17.03;;
8622;SDS011;4349;47.552;8.904;2022-12-16T00:23:20;25.50;;;17.23;;
8622;SDS011;4349;47.552;8.904;2022-12-16T00:25:48;22.80;;;16.47;;
8622;SDS011;4349;47.552;8.904;2022-12-16T00:28:17;23.23;;;16.70;;
8622;SDS011;4349;47.552;8.904;2022-12-16T00:30:48;24.20;;;16.97;;
8622;SDS011;4349;47.552;8.904;2022-12-16T00:33:18;24.30;;;16.73;;
8622;SDS011;4349;47.552;8.904;2022-12-16T00:35:46;22.33;;;15.73;;
8622;SDS011;4349;47.552;8.904;2022-12-16T00:38:14;22.47;;;15.40;;
8622;SDS011;4349;47.552;8.904;2022-12-16T00:40:41;22.33;;;15.80;;
8622;SDS011;4349;47.552;8.904;2022-12-16T00:43:09;22.63;;;16.30;;
8622;SDS011;4349;47.552;8.904;2022-12-16T00:45:37;27.03;;;16.43;;
8622;SDS011;4349;47.552;8.904;2022-12-16T00:48:05;24.73;;;16.37;;
8622;SDS011;4349;47.552;8.904;2022-12-16T00:50:34;21.80;;;15.17;;
8622;SDS011;4349;47.552;8.904;2022-12-16T00:53:02;22.07;;;15.30;;
8622;SDS011;4349;47.552;8.904;2022-12-16T00:55:29;20.27;;;14.13;;
8622;SDS011;4349;47.552;8.904;2022-12-16T00:57:57;21.60;;;14.77;;
8622;SDS011;4349;47.552;8.904;2022-12-16T01:00:25;20.40;;;14.27;;
8622;SDS011;4349;47.552;8.904;2022-12-16T01:02:52;19.20;;;13.93;;
8622;SDS011;4349;47.552;8.904;2022-12-16T01:05:21;21.07;;;14.03;;
8622;SDS011;4349;47.552;8.904;2022-12-16T01:07:53;20.80;;;13.97;;
8622;SDS011;4349;47.552;8.904;2022-12-16T01:10:21;19.30;;;13.43;;
8622;SDS011;4349;47.552;8.904;2022-12-16T01:12:49;20.93;;;14.10;;
8622;SDS011;4349;47.552;8.904;2022-12-16T01:15:16;18.77;;;13.83;;
8622;SDS011;4349;47.552;8.904;2022-12-16T01:17:44;19.53;;;14.10;;
8622;SDS011;4349;47.552;8.904;2022-12-16T01:20:11;18.23;;;12.90;;
8622;SDS011;4349;47.552;8.904;2022-12-16T01:22:39;17.87;;;12.77;;
8622;SDS011;4349;47.552;8.904;2022-12-16T01:25:09;17.77;;;12.97;;
8622;SDS011;4349;47.552;8.904;2022-12-16T01:27:38;15.27;;;12.00;;
8622;SDS011;4349;47.552;8.904;2022-12-16T01:30:06;16.53;;;12.63;;
8622;SDS011;4349;47.552;8.904;2022-12-16T01:32:34;15.83;;;11.67;;
8622;SDS011;4349;47.552;8.904;2022-12-16T01:35:02;17.87;;;13.00;;
8622;SDS011;4349;47.552;8.904;2022-12-16T01:37:48;16.20;;;12.50;;
8622;SDS011;4349;47.552;8.904;2022-12-16T01:40:18;17.60;;;12.63;;
8622;SDS011;4349;47.552;8.904;2022-12-16T01:42:46;18.87;;;13.63;;
8622;SDS011;4349;47.552;8.904;2022-12-16T01:45:28;18.00;;;13.00;;
8622;SDS011;4349;47.552;8.904;2022-12-16T01:47:56;15.93;;;11.77;;
8622;SDS011;4349;47.552;8.904;2022-12-16T01:50:25;15.33;;;11.90;;
8622;SDS011;4349;47.552;8.904;2022-12-16T01:52:54;16.13;;;12.40;;
8622;SDS011;4349;47.552;8.904;2022-12-16T01:55:25;15.27;;;11.77;;
8622;SDS011;4349;47.552;8.904;2022-12-16T01:57:55;16.47;;;12.57;;
8622;SDS011;4349;47.552;8.904;2022-12-16T02:00:23;17.30;;;12.73;;
8622;SDS011;4349;47.552;8.904;2022-12-16T02:02:51;15.87;;;11.90;;
8622;SDS011;4349;47.552;8.904;2022-12-16T02:05:19;15.80;;;12.10;;
8622;SDS011;4349;47.552;8.904;2022-12-16T02:07:51;17.07;;;11.87;;
8622;SDS011;4349;47.552;8.904;2022-12-16T02:10:20;15.57;;;11.63;;
8622;SDS011;4349;47.552;8.904;2022-12-16T02:12:53;16.03;;;11.90;;
8622;SDS011;4349;47.552;8.904;2022-12-16T02:15:24;15.40;;;11.03;;
8622;SDS011;4349;47.552;8.904;2022-12-16T02:17:54;15.20;;;11.93;;
8622;SDS011;4349;47.552;8.904;2022-12-16T02:20:30;14.13;;;11.23;;
8622;SDS011;4349;47.552;8.904;2022-12-16T02:23:15;17.33;;;12.10;;
8622;SDS011;4349;47.552;8.904;2022-12-16T02:25:57;12.43;;;10.93;;
8622;SDS011;4349;47.552;8.904;2022-12-16T02:28:34;14.40;;;11.00;;
8622;SDS011;4349;47.552;8.904;2022-12-16T02:31:17;14.07;;;10.57;;
8622;SDS011;4349;47.552;8.904;2022-12-16T02:33:49;14.03;;;10.37;;
8622;SDS011;4349;47.552;8.904;2022-12-16T02:36:21;13.13;;;10.70;;
8622;SDS011;4349;47.552;8.904;2022-12-16T02:38:53;14.27;;;10.33;;
8622;SDS011;4349;47.552;8.904;2022-12-16T02:41:24;11.37;;;10.00;;
8622;SDS011;4349;47.552;8.904;2022-12-16T02:43:53;13.43;;;10.57;;
8622;SDS011;4349;47.552;8.904;2022-12-16T02:46:24;11.60;;;9.73;;
8622;SDS011;4349;47.552;8.904;2022-12-16T02:48:53;11.63;;;9.27;;
8622;SDS011;4349;47.552;8.904;2022-12-16T02:51:20;12.23;;;10.27;;
8622;SDS011;4349;47.552;8.904;2022-12-16T02:53:50;10.37;;;9.37;;
8622;SDS011;4349;47.552;8.904;2022-12-16T02:56:21;12.73;;;10.73;;
8622;SDS011;4349;47.552;8.904;2022-12-16T02:58:51;14.43;;;10.20;;
8622;SDS011;4349;47.552;8.904;2022-12-16T03:01:24;11.63;;;10.43;;
8622;SDS011;4349;47.552;8.904;2022-12-16T03:03:57;12.67;;;9.63;;
8622;SDS011;4349;47.552;8.904;2022-12-16T03:06:28;11.10;;;9.70;;
8622;SDS011;4349;47.552;8.904;2022-12-16T03:08:57;10.97;;;9.70;;
8622;SDS011;4349;47.552;8.904;2022-12-16T03:11:26;11.63;;;10.07;;
8622;SDS011;4349;47.552;8.904;2022-12-16T03:13:54;11.33;;;9.93;;
8622;SDS011;4349;47.552;8.904;2022-12-16T03:16:25;12.23;;;10.27;;
8622;SDS011;4349;47.552;8.904;2022-12-16T03:18:54;11.83;;;10.00;;
8622;SDS011;4349;47.552;8.904;2022-12-16T03:21:23;13.57;;;10.43;;
8622;SDS011;4349;47.552;8.904;2022-12-16T03:23:53;12.57;;;9.70;;
8622;SDS011;4349;47.552;8.904;2022-12-16T03:26:22;11.03;;;9.53;;
8622;SDS011;4349;47.552;8.904;2022-12-16T03:28:51;13.70;;;11.00;;
8622;SDS011;4349;47.552;8.904;2022-12-16T03:31:25;16.87;;;11.63;;
8622;SDS011;4349;47.552;8.904;2022-12-16T03:33:57;17.77;;;13.43;;
8622;SDS011;4349;47.552;8.904;2022-12-16T03:36:26;17.30;;;12.73;;
8622;SDS011;4349;47.552;8.904;2022-12-16T03:38:56;16.10;;;12.03;;
8622;SDS011;4349;47.552;8.904;2022-12-16T03:41:23;18.27;;;13.03;;
8622;SDS011;4349;47.552;8.904;2022-12-16T03:43:51;19.63;;;14.07;;
8622;SDS011;4349;47.552;8.904;2022-12-16T03:46:19;15.80;;;12.47;;
8622;SDS011;4349;47.552;8.904;2022-12-16T03:48:49;17.80;;;13.27;;
8622;SDS011;4349;47.552;8.904;2022-12-16T03:51:17;17.10;;;13.00;;
8622;SDS011;4349;47.552;8.904;2022-12-16T03:53:45;20.77;;;13.93;;
8622;SDS011;4349;47.552;8.904;2022-12-16T03:56:12;18.53;;;13.50;;
8622;SDS011;4349;47.552;8.904;2022-12-16T03:58:39;17.77;;;13.63;;
8622;SDS011;4349;47.552;8.904;2022-12-16T04:01:07;18.03;;;13.07;;
8622;SDS011;4349;47.552;8.904;2022-12-16T04:03:35;19.23;;;13.20;;
8622;SDS011;4349;47.552;8.904;2022-12-16T04:06:05;17.07;;;12.77;;
8622;SDS011;4349;47.552;8.904;2022-12-16T04:08:32;15.50;;;12.50;;
8622;SDS011;4349;47.552;8.904;2022-12-16T04:11:00;15.43;;;11.77;;
8622;SDS011;4349;47.552;8.904;2022-12-16T04:13:45;17.37;;;11.83;;
8622;SDS011;4349;47.552;8.904;2022-12-16T04:16:30;14.53;;;11.40;;
8622;SDS011;4349;47.552;8.904;2022-12-16T04:19:17;14.00;;;11.43;;
8622;SDS011;4349;47.552;8.904;2022-12-16T04:22:06;16.87;;;11.87;;
8622;SDS011;4349;47.552;8.904;2022-12-16T04:24:54;15.17;;;12.50;;
8622;SDS011;4349;47.552;8.904;2022-12-16T04:27:21;13.57;;;11.30;;
8622;SDS011;4349;47.552;8.904;2022-12-16T04:29:53;15.17;;;11.90;;
8622;SDS011;4349;47.552;8.904;2022-12-16T04:32:53;16.33;;;12.50;;
8622;SDS011;4349;47.552;8.904;2022-12-16T04:35:39;14.53;;;12.20;;
8622;SDS011;4349;47.552;8.904;2022-12-16T04:38:26;13.63;;;11.40;;
8622;SDS011;4349;47.552;8.904;2022-12-16T04:41:11;15.00;;;11.77;;
8622;SDS011;4349;47.552;8.904;2022-12-16T04:43:57;13.57;;;11.50;;
8622;SDS011;4349;47.552;8.904;2022-12-16T04:46:42;16.17;;;12.07;;
8622;SDS011;4349;47.552;8.904;2022-12-16T04:49:27;13.70;;;10.77;;
8622;SDS011;4349;47.552;8.904;2022-12-16T04:52:11;15.07;;;11.03;;
8622;SDS011;4349;47.552;8.904;2022-12-16T04:54:58;11.73;;;10.37;;
8622;SDS011;4349;47.552;8.904;2022-12-16T04:57:43;14.30;;;11.43;;
8622;SDS011;4349;47.552;8.904;2022-12-16T05:00:28;15.03;;;10.87;;
8622;SDS011;4349;47.552;8.904;2022-12-16T05:03:13;12.00;;;10.63;;
8622;SDS011;4349;47.552;8.904;2022-12-16T05:05:59;14.07;;;11.63;;
8622;SDS011;4349;47.552;8.904;2022-12-16T05:08:44;14.60;;;11.70;;
8622;SDS011;4349;47.552;8.904;2022-12-16T05:11:30;13.57;;;11.70;;
8622;SDS011;4349;47.552;8.904;2022-12-16T05:14:15;15.50;;;11.57;;
8622;SDS011;4349;47.552;8.904;2022-12-16T05:17:00;14.63;;;12.43;;
8622;SDS011;4349;47.552;8.904;2022-12-16T05:19:45;14.87;;;12.43;;
8622;SDS011;4349;47.552;8.904;2022-12-16T05:22:35;13.77;;;11.90;;
8622;SDS011;4349;47.552;8.904;2022-12-16T05:25:20;15.13;;;13.27;;
8622;SDS011;4349;47.552;8.904;2022-12-16T05:28:11;15.03;;;12.43;;
8622;SDS011;4349;47.552;8.904;2022-12-16T05:30:57;20.93;;;15.27;;
8622;SDS011;4349;47.552;8.904;2022-12-16T05:33:42;14.80;;;12.60;;
8622;SDS011;4349;47.552;8.904;2022-12-16T05:36:27;16.07;;;12.47;;
8622;SDS011;4349;47.552;8.904;2022-12-16T05:39:12;14.80;;;12.53;;
8622;SDS011;4349;47.552;8.904;2022-12-16T05:41:57;17.50;;;12.97;;
8622;SDS011;4349;47.552;8.904;2022-12-16T05:44:43;15.93;;;12.50;;
8622;SDS011;4349;47.552;8.904;2022-12-16T05:47:28;15.40;;;12.03;;
8622;SDS011;4349;47.552;8.904;2022-12-16T05:50:13;14.80;;;12.40;;
8622;SDS011;4349;47.552;8.904;2022-12-16T05:53:06;15.67;;;12.67;;
8622;SDS011;4349;47.552;8.904;2022-12-16T05:55:52;17.50;;;13.13;;
8622;SDS011;4349;47.552;8.904;2022-12-16T05:58:51;14.57;;;12.53;;
8622;SDS011;4349;47.552;8.904;2022-12-16T06:01:38;16.67;;;12.27;;
8622;SDS011;4349;47.552;8.904;2022-12-16T06:04:23;14.37;;;12.10;;
8622;SDS011;4349;47.552;8.904;2022-12-16T06:07:08;16.93;;;13.10;;
8622;SDS011;4349;47.552;8.904;2022-12-16T06:09:53;15.50;;;12.90;;
8622;SDS011;4349;47.552;8.904;2022-12-16T06:12:37;16.50;;;13.23;;
8622;SDS011;4349;47.552;8.904;2022-12-16T06:15:22;17.77;;;13.20;;
8622;SDS011;4349;47.552;8.904;2022-12-16T06:18:08;16.53;;;13.27;;
8622;SDS011;4349;47.552;8.904;2022-12-16T06:20:53;17.07;;;13.17;;
8622;SDS011;4349;47.552;8.904;2022-12-16T06:23:38;17.23;;;13.30;;
8622;SDS011;4349;47.552;8.904;2022-12-16T06:26:23;18.20;;;13.70;;
8622;SDS011;4349;47.552;8.904;2022-12-16T06:29:08;16.40;;;12.37;;
8622;SDS011;4349;47.552;8.904;2022-12-16T06:31:53;18.30;;;13.13;;
8622;SDS011;4349;47.552;8.904;2022-12-16T06:34:39;18.13;;;13.17;;
8622;SDS011;4349;47.552;8.904;2022-12-16T06:37:38;19.10;;;13.57;;
8622;SDS011;4349;47.552;8.904;2022-12-16T06:40:23;19.57;;;13.60;;
8622;SDS011;4349;47.552;8.904;2022-12-16T06:43:08;17.17;;;13.70;;
8622;SDS011;4349;47.552;8.904;2022-12-16T06:45:53;19.40;;;13.97;;
8622;SDS011;4349;47.552;8.904;2022-12-16T06:48:38;18.40;;;13.90;;
8622;SDS011;4349;47.552;8.904;2022-12-16T06:51:25;20.73;;;13.63;;
8622;SDS011;4349;47.552;8.904;2022-12-16T06:54:10;19.77;;;13.90;;
8622;SDS011;4349;47.552;8.904;2022-12-16T06:56:54;21.47;;;15.27;;
8622;SDS011;4349;47.552;8.904;2022-12-16T06:59:39;21.27;;;14.83;;
8622;SDS011;4349;47.552;8.904;2022-12-16T07:02:24;22.57;;;15.10;;
8622;SDS011;4349;47.552;8.904;2022-12-16T07:05:09;22.33;;;15.40;;
8622;SDS011;4349;47.552;8.904;2022-12-16T07:07:56;22.17;;;14.93;;
8622;SDS011;4349;47.552;8.904;2022-12-16T07:10:41;21.77;;;15.23;;
8622;SDS011;4349;47.552;8.904;2022-12-16T07:13:41;21.90;;;14.47;;
8622;SDS011;4349;47.552;8.904;2022-12-16T07:16:25;22.50;;;14.90;;
8622;SDS011;4349;47.552;8.904;2022-12-16T07:19:10;20.53;;;14.40;;
8622;SDS011;4349;47.552;8.904;2022-12-16T07:21:56;20.53;;;14.50;;
8622;SDS011;4349;47.552;8.904;2022-12-16T07:24:42;19.47;;;14.17;;
8622;SDS011;4349;47.552;8.904;2022-12-16T07:27:27;22.40;;;15.27;;
8622;SDS011;4349;47.552;8.904;2022-12-16T07:30:11;24.80;;;15.90;;
8622;SDS011;4349;47.552;8.904;2022-12-16T07:32:56;22.80;;;15.37;;
8622;SDS011;4349;47.552;8.904;2022-12-16T07:35:41;20.50;;;14.47;;
8622;SDS011;4349;47.552;8.904;2022-12-16T07:38:31;21.87;;;14.87;;
8622;SDS011;4349;47.552;8.904;2022-12-16T07:41:17;23.90;;;14.37;;
8622;SDS011;4349;47.552;8.904;2022-12-16T07:44:02;22.70;;;15.00;;
8622;SDS011;4349;47.552;8.904;2022-12-16T07:46:47;21.43;;;14.73;;
8622;SDS011;4349;47.552;8.904;2022-12-16T07:49:33;20.90;;;14.47;;
8622;SDS011;4349;47.552;8.904;2022-12-16T07:52:20;23.67;;;15.13;;
8622;SDS011;4349;47.552;8.904;2022-12-16T07:55:06;21.53;;;14.47;;
8622;SDS011;4349;47.552;8.904;2022-12-16T07:58:03;22.13;;;15.03;;
8622;SDS011;4349;47.552;8.904;2022-12-16T08:00:48;20.17;;;14.00;;
8622;SDS011;4349;47.552;8.904;2022-12-16T08:03:39;21.47;;;14.77;;
8622;SDS011;4349;47.552;8.904;2022-12-16T08:06:24;20.00;;;15.00;;
8622;SDS011;4349;47.552;8.904;2022-12-16T08:09:09;23.47;;;16.40;;
8622;SDS011;4349;47.552;8.904;2022-12-16T08:11:54;23.27;;;15.73;;
8622;SDS011;4349;47.552;8.904;2022-12-16T08:14:45;21.63;;;15.13;;
8622;SDS011;4349;47.552;8.904;2022-12-16T08:17:30;25.10;;;15.90;;
8622;SDS011;4349;47.552;8.904;2022-12-16T08:20:17;23.73;;;15.63;;
8622;SDS011;4349;47.552;8.904;2022-12-16T08:23:02;25.00;;;16.60;;
8622;SDS011;4349;47.552;8.904;2022-12-16T08:25:47;23.37;;;16.27;;
8622;SDS011;4349;47.552;8.904;2022-12-16T08:28:32;24.03;;;16.07;;
8622;SDS011;4349;47.552;8.904;2022-12-16T08:31:19;25.40;;;16.67;;
8622;SDS011;4349;47.552;8.904;2022-12-16T08:34:04;23.73;;;16.77;;
8622;SDS011;4349;47.552;8.904;2022-12-16T08:36:49;21.50;;;15.33;;
8622;SDS011;4349;47.552;8.904;2022-12-16T08:39:33;25.50;;;16.77;;
8622;SDS011;4349;47.552;8.904;2022-12-16T08:42:38;27.33;;;17.00;;
8622;SDS011;4349;47.552;8.904;2022-12-16T08:45:23;28.73;;;18.27;;
8622;SDS011;4349;47.552;8.904;2022-12-16T08:48:10;24.03;;;16.47;;
8622;SDS011;4349;47.552;8.904;2022-12-16T08:50:55;27.97;;;17.50;;
8622;SDS011;4349;47.552;8.904;2022-12-16T08:53:40;26.03;;;16.53;;
8622;SDS011;4349;47.552;8.904;2022-12-16T08:56:25;23.77;;;16.33;;
8622;SDS011;4349;47.552;8.904;2022-12-16T08:59:11;26.50;;;17.07;;
8622;SDS011;4349;47.552;8.904;2022-12-16T09:01:55;25.97;;;17.83;;
8622;SDS011;4349;47.552;8.904;2022-12-16T09:04:42;26.70;;;17.33;;
8622;SDS011;4349;47.552;8.904;2022-12-16T09:07:27;23.80;;;16.93;;
8622;SDS011;4349;47.552;8.904;2022-12-16T09:10:12;25.50;;;17.67;;
8622;SDS011;4349;47.552;8.904;2022-12-16T09:13:05;25.80;;;18.13;;
8622;SDS011;4349;47.552;8.904;2022-12-16T09:15:51;25.93;;;17.07;;
8622;SDS011;4349;47.552;8.904;2022-12-16T09:18:44;25.63;;;17.60;;
8622;SDS011;4349;47.552;8.904;2022-12-16T09:21:30;26.33;;;17.70;;
8622;SDS011;4349;47.552;8.904;2022-12-16T09:24:15;27.77;;;17.83;;
8622;SDS011;4349;47.552;8.904;2022-12-16T09:27:00;25.27;;;17.73;;
8622;SDS011;4349;47.552;8.904;2022-12-16T09:29:45;24.87;;;17.27;;
8622;SDS011;4349;47.552;8.904;2022-12-16T09:32:30;25.77;;;17.30;;
8622;SDS011;4349;47.552;8.904;2022-12-16T09:35:16;26.80;;;17.20;;
8622;SDS011;4349;47.552;8.904;2022-12-16T09:38:02;27.67;;;16.97;;
8622;SDS011;4349;47.552;8.904;2022-12-16T09:40:47;23.83;;;16.83;;
8622;SDS011;4349;47.552;8.904;2022-12-16T09:43:35;24.17;;;16.77;;
8622;SDS011;4349;47.552;8.904;2022-12-16T09:46:24;23.97;;;17.17;;
8622;SDS011;4349;47.552;8.904;2022-12-16T09:49:12;22.77;;;16.23;;
8622;SDS011;4349;47.552;8.904;2022-12-16T09:51:59;25.87;;;17.87;;
8622;SDS011;4349;47.552;8.904;2022-12-16T09:54:47;22.20;;;16.03;;
8622;SDS011;4349;47.552;8.904;2022-12-16T09:57:33;24.27;;;17.17;;
8622;SDS011;4349;47.552;8.904;2022-12-16T10:00:19;25.17;;;17.40;;
8622;SDS011;4349;47.552;8.904;2022-12-16T10:03:07;23.20;;;16.87;;
8622;SDS011;4349;47.552;8.904;2022-12-16T10:05:58;25.33;;;17.63;;
8622;SDS011;4349;47.552;8.904;2022-12-16T10:08:48;22.83;;;16.47;;
8622;SDS011;4349;47.552;8.904;2022-12-16T10:11:41;22.87;;;16.93;;
8622;SDS011;4349;47.552;8.904;2022-12-16T10:14:29;27.23;;;17.80;;
8622;SDS011;4349;47.552;8.904;2022-12-16T10:17:17;23.33;;;16.03;;
8622;SDS011;4349;47.552;8.904;2022-12-16T10:20:06;23.87;;;17.20;;
8622;SDS011;4349;47.552;8.904;2022-12-16T10:22:57;28.03;;;18.47;;
8622;SDS011;4349;47.552;8.904;2022-12-16T10:25:45;28.60;;;19.40;;
8622;SDS011;4349;47.552;8.904;2022-12-16T10:28:39;26.90;;;18.40;;
8622;SDS011;4349;47.552;8.904;2022-12-16T10:31:26;25.53;;;17.73;;
8622;SDS011;4349;47.552;8.904;2022-12-16T10:34:13;28.40;;;18.93;;
8622;SDS011;4349;47.552;8.904;2022-12-16T10:36:58;28.07;;;18.27;;
8622;SDS011;4349;47.552;8.904;2022-12-16T10:39:46;24.87;;;17.87;;
8622;SDS011;4349;47.552;8.904;2022-12-16T10:42:34;25.17;;;18.03;;
8622;SDS011;4349;47.552;8.904;2022-12-16T10:45:23;26.20;;;17.87;;
8622;SDS011;4349;47.552;8.904;2022-12-16T10:48:09;27.30;;;17.30;;
8622;SDS011;4349;47.552;8.904;2022-12-16T10:50:55;26.93;;;18.30;;
8622;SDS011;4349;47.552;8.904;2022-12-16T10:53:40;27.53;;;18.40;;
8622;SDS011;4349;47.552;8.904;2022-12-16T10:56:30;26.83;;;18.47;;
8622;SDS011;4349;47.552;8.904;2022-12-16T10:59:18;25.63;;;17.97;;
8622;SDS011;4349;47.552;8.904;2022-12-16T11:02:15;28.20;;;18.70;;
8622;SDS011;4349;47.552;8.904;2022-12-16T11:05:02;29.30;;;19.17;;
8622;SDS011;4349;47.552;8.904;2022-12-16T11:08:08;28.07;;;18.53;;
8622;SDS011;4349;47.552;8.904;2022-12-16T11:11:11;25.60;;;18.27;;
8622;SDS011;4349;47.552;8.904;2022-12-16T11:17:29;24.03;;;17.73;;
8622;SDS011;4349;47.552;8.904;2022-12-16T11:20:15;25.37;;;18.57;;
8622;SDS011;4349;47.552;8.904;2022-12-16T11:23:08;27.40;;;19.37;;
8622;SDS011;4349;47.552;8.904;2022-12-16T11:26:06;27.00;;;18.97;;
8622;SDS011;4349;47.552;8.904;2022-12-16T11:29:04;24.80;;;17.93;;
8622;SDS011;4349;47.552;8.904;2022-12-16T11:31:50;26.47;;;17.70;;
8622;SDS011;4349;47.552;8.904;2022-12-16T11:34:39;26.97;;;18.30;;
8622;SDS011;4349;47.552;8.904;2022-12-16T11:37:25;25.70;;;18.27;;
8622;SDS011;4349;47.552;8.904;2022-12-16T11:40:12;26.80;;;18.77;;
8622;SDS011;4349;47.552;8.904;2022-12-16T11:42:59;27.93;;;19.17;;
8622;SDS011;4349;47.552;8.904;2022-12-16T11:45:44;28.57;;;18.87;;
8622;SDS011;4349;47.552;8.904;2022-12-16T11:48:31;27.97;;;18.20;;
8622;SDS011;4349;47.552;8.904;2022-12-16T11:51:18;24.37;;;17.47;;
8622;SDS011;4349;47.552;8.904;2022-12-16T11:54:06;26.63;;;19.10;;
8622;SDS011;4349;47.552;8.904;2022-12-16T11:56:52;26.87;;;19.13;;
8622;SDS011;4349;47.552;8.904;2022-12-16T11:59:39;27.80;;;18.83;;
8622;SDS011;4349;47.552;8.904;2022-12-16T12:02:26;28.77;;;19.93;;
8622;SDS011;4349;47.552;8.904;2022-12-16T12:05:13;26.43;;;18.63;;
8622;SDS011;4349;47.552;8.904;2022-12-16T12:08:01;27.30;;;20.10;;
8622;SDS011;4349;47.552;8.904;2022-12-16T12:10:50;27.03;;;18.37;;
8622;SDS011;4349;47.552;8.904;2022-12-16T12:13:40;27.03;;;18.30;;
8622;SDS011;4349;47.552;8.904;2022-12-16T12:16:30;26.90;;;19.67;;
8622;SDS011;4349;47.552;8.904;2022-12-16T12:19:20;24.47;;;18.30;;
8622;SDS011;4349;47.552;8.904;2022-12-16T12:22:10;25.40;;;18.80;;
8622;SDS011;4349;47.552;8.904;2022-12-16T12:24:59;26.80;;;19.47;;
8622;SDS011;4349;47.552;8.904;2022-12-16T12:27:49;27.77;;;19.60;;
8622;SDS011;4349;47.552;8.904;2022-12-16T12:30:45;26.97;;;19.13;;
8622;SDS011;4349;47.552;8.904;2022-12-16T12:33:39;27.03;;;18.87;;
8622;SDS011;4349;47.552;8.904;2022-12-16T12:36:27;28.80;;;19.77;;
8622;SDS011;4349;47.552;8.904;2022-12-16T12:39:15;29.03;;;19.43;;
8622;SDS011;4349;47.552;8.904;2022-12-16T12:42:14;26.30;;;19.20;;
8622;SDS011;4349;47.552;8.904;2022-12-16T12:45:05;26.73;;;19.20;;
8622;SDS011;4349;47.552;8.904;2022-12-16T12:47:58;26.20;;;18.90;;
8622;SDS011;4349;47.552;8.904;2022-12-16T12:50:47;28.67;;;20.00;;
8622;SDS011;4349;47.552;8.904;2022-12-16T12:53:38;30.50;;;19.87;;
8622;SDS011;4349;47.552;8.904;2022-12-16T12:56:28;29.97;;;19.57;;
8622;SDS011;4349;47.552;8.904;2022-12-16T12:59:18;30.77;;;21.20;;
8622;SDS011;4349;47.552;8.904;2022-12-16T13:02:05;27.13;;;19.87;;
8622;SDS011;4349;47.552;8.904;2022-12-16T13:04:53;28.07;;;19.77;;
8622;SDS011;4349;47.552;8.904;2022-12-16T13:07:39;27.80;;;19.90;;
8622;SDS011;4349;47.552;8.904;2022-12-16T13:10:31;29.10;;;20.33;;
8622;SDS011;4349;47.552;8.904;2022-12-16T13:13:25;28.40;;;19.90;;
8622;SDS011;4349;47.552;8.904;2022-12-16T13:16:54;30.00;;;20.87;;
8622;SDS011;4349;47.552;8.904;2022-12-16T13:19:40;27.90;;;20.33;;
8622;SDS011;4349;47.552;8.904;2022-12-16T13:22:26;29.43;;;20.80;;
8622;SDS011;4349;47.552;8.904;2022-12-16T13:25:31;29.50;;;20.00;;
8622;SDS011;4349;47.552;8.904;2022-12-16T13:28:21;28.00;;;20.43;;
8622;SDS011;4349;47.552;8.904;2022-12-16T13:31:06;26.43;;;19.57;;
8622;SDS011;4349;47.552;8.904;2022-12-16T13:33:53;30.30;;;20.97;;
8622;SDS011;4349;47.552;8.904;2022-12-16T13:36:39;29.30;;;19.97;;
8622;SDS011;4349;47.552;8.904;2022-12-16T13:39:26;28.53;;;20.23;;
8622;SDS011;4349;47.552;8.904;2022-12-16T13:42:30;28.63;;;20.33;;
8622;SDS011;4349;47.552;8.904;2022-12-16T13:45:16;28.30;;;20.17;;
8622;SDS011;4349;47.552;8.904;2022-12-16T13:48:24;27.73;;;20.00;;
8622;SDS011;4349;47.552;8.904;2022-12-16T13:51:17;28.17;;;20.70;;
8622;SDS011;4349;47.552;8.904;2022-12-16T13:54:28;27.77;;;20.10;;
8622;SDS011;4349;47.552;8.904;2022-12-16T13:57:14;28.70;;;20.93;;
8622;SDS011;4349;47.552;8.904;2022-12-16T14:00:15;26.70;;;20.07;;
8622;SDS011;4349;47.552;8.904;2022-12-16T14:03:02;27.63;;;20.43;;
8622;SDS011;4349;47.552;8.904;2022-12-16T14:05:48;31.33;;;20.83;;
8622;SDS011;4349;47.552;8.904;2022-12-16T14:08:34;31.43;;;21.33;;
8622;SDS011;4349;47.552;8.904;2022-12-16T14:11:28;28.00;;;20.80;;
8622;SDS011;4349;47.552;8.904;2022-12-16T14:14:16;33.23;;;21.87;;
8622;SDS011;4349;47.552;8.904;2022-12-16T14:17:03;29.90;;;20.47;;
8622;SDS011;4349;47.552;8.904;2022-12-16T14:19:52;33.33;;;22.37;;
8622;SDS011;4349;47.552;8.904;2022-12-16T14:22:46;29.17;;;21.10;;
8622;SDS011;4349;47.552;8.904;2022-12-16T14:25:33;29.10;;;21.20;;
8622;SDS011;4349;47.552;8.904;2022-12-16T14:28:21;30.00;;;20.63;;
8622;SDS011;4349;47.552;8.904;2022-12-16T14:31:11;29.57;;;20.77;;
8622;SDS011;4349;47.552;8.904;2022-12-16T14:33:57;30.57;;;21.23;;
8622;SDS011;4349;47.552;8.904;2022-12-16T14:36:43;28.77;;;20.23;;
8622;SDS011;4349;47.552;8.904;2022-12-16T14:39:29;31.83;;;21.50;;
8622;SDS011;4349;47.552;8.904;2022-12-16T14:42:24;34.33;;;21.77;;
8622;SDS011;4349;47.552;8.904;2022-12-16T14:45:24;31.73;;;22.13;;
8622;SDS011;4349;47.552;8.904;2022-12-16T14:48:20;26.87;;;19.90;;
8622;SDS011;4349;47.552;8.904;2022-12-16T14:51:15;30.53;;;21.03;;
8622;SDS011;4349;47.552;8.904;2022-12-16T14:54:20;32.13;;;21.13;;
8622;SDS011;4349;47.552;8.904;2022-12-16T14:57:09;28.57;;;21.13;;
8622;SDS011;4349;47.552;8.904;2022-12-16T15:00:10;29.70;;;20.93;;
8622;SDS011;4349;47.552;8.904;2022-12-16T15:02:57;29.17;;;21.10;;
8622;SDS011;4349;47.552;8.904;2022-12-16T15:05:44;29.53;;;21.50;;
8622;SDS011;4349;47.552;8.904;2022-12-16T15:08:30;27.60;;;20.90;;
8622;SDS011;4349;47.552;8.904;2022-12-16T15:11:17;28.77;;;20.17;;
8622;SDS011;4349;47.552;8.904;2022-12-16T15:14:03;32.27;;;21.27;;
8622;SDS011;4349;47.552;8.904;2022-12-16T15:16:49;31.00;;;21.37;;
8622;SDS011;4349;47.552;8.904;2022-12-16T15:19:38;31.93;;;21.23;;
8622;SDS011;4349;47.552;8.904;2022-12-16T15:22:29;31.70;;;21.60;;
8622;SDS011;4349;47.552;8.904;2022-12-16T15:25:17;28.50;;;19.83;;
8622;SDS011;4349;47.552;8.904;2022-12-16T15:28:02;29.40;;;21.23;;
8622;SDS011;4349;47.552;8.904;2022-12-16T15:30:47;28.53;;;19.10;;
8622;SDS011;4349;47.552;8.904;2022-12-16T15:33:34;26.60;;;18.30;;
8622;SDS011;4349;47.552;8.904;2022-12-16T15:36:24;24.23;;;18.53;;
8622;SDS011;4349;47.552;8.904;2022-12-16T15:39:15;28.20;;;18.53;;
8622;SDS011;4349;47.552;8.904;2022-12-16T15:42:01;25.53;;;17.10;;
8622;SDS011;4349;47.552;8.904;2022-12-16T15:44:47;26.27;;;18.07;;
8622;SDS011;4349;47.552;8.904;2022-12-16T15:47:34;28.57;;;18.87;;
8622;SDS011;4349;47.552;8.904;2022-12-16T15:50:20;24.40;;;17.57;;
8622;SDS011;4349;47.552;8.904;2022-12-16T15:53:22;27.57;;;17.87;;
8622;SDS011;4349;47.552;8.904;2022-12-16T15:56:15;24.17;;;17.17;;
8622;SDS011;4349;47.552;8.904;2022-12-16T15:59:11;25.37;;;16.50;;
8622;SDS011;4349;47.552;8.904;2022-12-16T16:01:57;22.20;;;15.47;;
8622;SDS011;4349;47.552;8.904;2022-12-16T16:04:42;21.60;;;15.17;;
8622;SDS011;4349;47.552;8.904;2022-12-16T16:07:27;24.43;;;15.93;;
8622;SDS011;4349;47.552;8.904;2022-12-16T16:10:15;22.67;;;15.70;;
8622;SDS011;4349;47.552;8.904;2022-12-16T16:13:00;23.70;;;16.73;;
8622;SDS011;4349;47.552;8.904;2022-12-16T16:15:45;22.17;;;15.20;;
8622;SDS011;4349;47.552;8.904;2022-12-16T16:18:31;25.67;;;16.70;;
8622;SDS011;4349;47.552;8.904;2022-12-16T16:21:16;23.00;;;14.90;;
8622;SDS011;4349;47.552;8.904;2022-12-16T16:24:01;25.80;;;15.80;;
8622;SDS011;4349;47.552;8.904;2022-12-16T16:26:47;22.57;;;16.23;;